sensor_id;sensor_type;location;lat;lon;timestamp;pressure;altitude;pressure_sealevel;temperature;humidity
71043;BME280;58696;52.134;5.500;2022-08-19T00:00:31;101356.41;;;16.65;nan
71043;BME280;58696;52.134;5.500;2022-08-19T00:02:57;101358.16;;;16.59;nan
71043;BME280;58696;52.134;5.500;2022-08-19T00:05:24;101355.50;;;16.59;nan
71043;BME280;58696;52.134;5.500;2022-08-19T00:07:51;101360.78;;;16.59;nan
71043;BME280;58696;52.134;5.500;2022-08-19T00:10:20;101369.59;;;16.55;nan
71043;BME280;58696;52.134;5.500;2022-08-19T00:12:47;101369.56;;;16.51;nan
71043;BME280;58696;52.134;5.500;2022-08-19T00:15:18;101373.97;;;16.44;nan
71043;BME280;58696;52.134;5.500;2022-08-19T00:17:46;101372.22;;;16.38;nan
71043;BME280;58696;52.134;5.500;2022-08-19T00:20:19;101371.34;;;16.35;nan
71043;BME280;58696;52.134;5.500;2022-08-19T00:22:47;101369.59;;;16.33;nan
71043;BME280;58696;52.134;5.500;2022-08-19T00:25:16;101373.97;;;16.35;nan
71043;BME280;58696;52.134;5.500;2022-08-19T00:27:43;101373.09;;;16.36;nan
71043;BME280;58696;52.134;5.500;2022-08-19T00:30:11;101366.94;;;16.33;nan
71043;BME280;58696;52.134;5.500;2022-08-19T00:32:38;101371.31;;;16.31;nan
71043;BME280;58696;52.134;5.500;2022-08-19T00:35:08;101365.16;;;16.31;nan
71043;BME280;58696;52.134;5.500;2022-08-19T00:37:36;101361.66;;;16.30;nan
71043;BME280;58696;52.134;5.500;2022-08-19T00:40:05;101362.50;;;16.29;nan
71043;BME280;58696;52.134;5.500;2022-08-19T00:42:32;101357.25;;;16.26;nan
71043;BME280;58696;52.134;5.500;2022-08-19T00:44:59;101358.16;;;16.24;nan
71043;BME280;58696;52.134;5.500;2022-08-19T00:47:28;101351.06;;;16.19;nan
71043;BME280;58696;52.134;5.500;2022-08-19T00:49:59;101364.28;;;16.16;nan
71043;BME280;58696;52.134;5.500;2022-08-19T00:52:30;101359.00;;;16.15;nan
71043;BME280;58696;52.134;5.500;2022-08-19T00:54:59;101360.75;;;16.16;nan
71043;BME280;58696;52.134;5.500;2022-08-19T00:57:30;101360.75;;;16.16;nan
71043;BME280;58696;52.134;5.500;2022-08-19T01:00:00;101359.00;;;16.15;nan
71043;BME280;58696;52.134;5.500;2022-08-19T01:02:30;101359.00;;;16.12;nan
71043;BME280;58696;52.134;5.500;2022-08-19T01:05:05;101357.22;;;16.07;nan
71043;BME280;58696;52.134;5.500;2022-08-19T01:07:34;101364.25;;;16.01;nan
71043;BME280;58696;52.134;5.500;2022-08-19T01:10:05;101357.19;;;15.95;nan
71043;BME280;58696;52.134;5.500;2022-08-19T01:12:32;101353.63;;;15.90;nan
71043;BME280;58696;52.134;5.500;2022-08-19T01:15:04;101350.09;;;15.85;nan
71043;BME280;58696;52.134;5.500;2022-08-19T01:17:32;101353.63;;;15.82;nan
71043;BME280;58696;52.134;5.500;2022-08-19T01:20:03;101348.34;;;15.80;nan
71043;BME280;58696;52.134;5.500;2022-08-19T01:22:36;101356.25;;;15.80;nan
71043;BME280;58696;52.134;5.500;2022-08-19T01:25:05;101359.78;;;15.82;nan
71043;BME280;58696;52.134;5.500;2022-08-19T01:27:43;101359.75;;;15.84;nan
71043;BME280;58696;52.134;5.500;2022-08-19T01:30:14;101362.41;;;15.82;nan
71043;BME280;58696;52.134;5.500;2022-08-19T01:32:41;101358.88;;;15.80;nan
71043;BME280;58696;52.134;5.500;2022-08-19T01:35:11;101357.09;;;15.76;nan
71043;BME280;58696;52.134;5.500;2022-08-19T01:37:43;101360.63;;;15.77;nan
71043;BME280;58696;52.134;5.500;2022-08-19T01:40:10;101367.66;;;15.78;nan
71043;BME280;58696;52.134;5.500;2022-08-19T01:42:37;101362.34;;;15.73;nan
71043;BME280;58696;52.134;5.500;2022-08-19T01:45:05;101362.34;;;15.70;nan
71043;BME280;58696;52.134;5.500;2022-08-19T01:47:37;101357.97;;;15.71;nan
71043;BME280;58696;52.134;5.500;2022-08-19T01:50:06;101359.72;;;15.70;nan
71043;BME280;58696;52.134;5.500;2022-08-19T01:52:35;101357.97;;;15.69;nan
71043;BME280;58696;52.134;5.500;2022-08-19T01:55:06;101356.19;;;15.66;nan
71043;BME280;58696;52.134;5.500;2022-08-19T01:57:33;101358.81;;;15.65;nan
71043;BME280;58696;52.134;5.500;2022-08-19T02:00:02;101364.06;;;15.55;nan
71043;BME280;58696;52.134;5.500;2022-08-19T02:02:31;101363.16;;;15.52;nan
71043;BME280;58696;52.134;5.500;2022-08-19T02:04:58;101368.41;;;15.49;nan
71043;BME280;58696;52.134;5.500;2022-08-19T02:07:25;101371.91;;;15.44;nan
71043;BME280;58696;52.134;5.500;2022-08-19T02:09:52;101363.09;;;15.41;nan
71043;BME280;58696;52.134;5.500;2022-08-19T02:12:19;101371.00;;;15.41;nan
71043;BME280;58696;52.134;5.500;2022-08-19T02:14:47;101360.47;;;15.41;nan
71043;BME280;58696;52.134;5.500;2022-08-19T02:17:14;101370.13;;;15.40;nan
71043;BME280;58696;52.134;5.500;2022-08-19T02:19:41;101367.47;;;15.39;nan
71043;BME280;58696;52.134;5.500;2022-08-19T02:22:08;101363.97;;;15.38;nan
71043;BME280;58696;52.134;5.500;2022-08-19T02:24:34;101366.59;;;15.35;nan
71043;BME280;58696;52.134;5.500;2022-08-19T02:27:05;101355.16;;;15.28;nan
71043;BME280;58696;52.134;5.500;2022-08-19T02:29:32;101365.69;;;15.28;nan
71043;BME280;58696;52.134;5.500;2022-08-19T02:31:58;101371.81;;;15.30;nan
71043;BME280;58696;52.134;5.500;2022-08-19T02:34:25;101365.69;;;15.28;nan
71043;BME280;58696;52.134;5.500;2022-08-19T02:36:52;101374.44;;;15.24;nan
71043;BME280;58696;52.134;5.500;2022-08-19T02:39:19;101374.41;;;15.21;nan
71043;BME280;58696;52.134;5.500;2022-08-19T02:41:48;101384.03;;;15.16;nan
71043;BME280;58696;52.134;5.500;2022-08-19T02:44:16;101386.66;;;15.13;nan
71043;BME280;58696;52.134;5.500;2022-08-19T02:46:56;101382.25;;;15.12;nan
71043;BME280;58696;52.134;5.500;2022-08-19T02:49:22;101375.19;;;15.06;nan
71043;BME280;58696;52.134;5.500;2022-08-19T02:51:52;101379.59;;;15.05;nan
71043;BME280;58696;52.134;5.500;2022-08-19T02:54:21;101377.81;;;15.03;nan
71043;BME280;58696;52.134;5.500;2022-08-19T02:56:48;101372.53;;;15.01;nan
71043;BME280;58696;52.134;5.500;2022-08-19T02:59:14;101369.88;;;15.00;nan
71043;BME280;58696;52.134;5.500;2022-08-19T03:01:46;101383.06;;;15.01;nan
71043;BME280;58696;52.134;5.500;2022-08-19T03:04:15;101383.06;;;15.01;nan
71043;BME280;58696;52.134;5.500;2022-08-19T03:06:44;101390.06;;;14.99;nan
71043;BME280;58696;52.134;5.500;2022-08-19T03:09:12;101390.03;;;14.96;nan
71043;BME280;58696;52.134;5.500;2022-08-19T03:11:39;101376.88;;;14.93;nan
71043;BME280;58696;52.134;5.500;2022-08-19T03:14:07;101378.59;;;14.91;nan
71043;BME280;58696;52.134;5.500;2022-08-19T03:16:41;101372.44;;;14.86;nan
71043;BME280;58696;52.134;5.500;2022-08-19T03:19:08;101376.78;;;14.84;nan
71043;BME280;58696;52.134;5.500;2022-08-19T03:21:37;101375.91;;;14.83;nan
71043;BME280;58696;52.134;5.500;2022-08-19T03:24:07;101373.28;;;14.86;nan
71043;BME280;58696;52.134;5.500;2022-08-19T03:26:38;101369.84;;;14.90;nan
71043;BME280;58696;52.134;5.500;2022-08-19T03:29:08;101372.44;;;14.92;nan
71043;BME280;58696;52.134;5.500;2022-08-19T03:31:38;101371.56;;;14.90;nan
71043;BME280;58696;52.134;5.500;2022-08-19T03:34:15;101365.41;;;14.88;nan
71043;BME280;58696;52.134;5.500;2022-08-19T03:36:45;101361.00;;;14.85;nan
71043;BME280;58696;52.134;5.500;2022-08-19T03:39:15;101358.38;;;14.87;nan
71043;BME280;58696;52.134;5.500;2022-08-19T03:41:43;101362.81;;;14.91;nan
71043;BME280;58696;52.134;5.500;2022-08-19T03:44:15;101371.59;;;14.93;nan
71043;BME280;58696;52.134;5.500;2022-08-19T03:46:47;101367.19;;;14.89;nan
71043;BME280;58696;52.134;5.500;2022-08-19T03:49:16;101372.44;;;14.86;nan
71043;BME280;58696;52.134;5.500;2022-08-19T03:51:44;101372.38;;;14.79;nan
71043;BME280;58696;52.134;5.500;2022-08-19T03:54:16;101368.78;;;14.74;nan
71043;BME280;58696;52.134;5.500;2022-08-19T03:56:47;101369.66;;;14.70;nan
71043;BME280;58696;52.134;5.500;2022-08-19T03:59:21;101367.00;;;14.69;nan
71043;BME280;58696;52.134;5.500;2022-08-19T04:01:56;101371.38;;;14.70;nan
71043;BME280;58696;52.134;5.500;2022-08-19T04:04:23;101377.53;;;14.70;nan
71043;BME280;58696;52.134;5.500;2022-08-19T04:06:50;101377.50;;;14.67;nan
71043;BME280;58696;52.134;5.500;2022-08-19T04:09:20;101369.56;;;14.62;nan
71043;BME280;58696;52.134;5.500;2022-08-19T04:11:49;101351.16;;;14.59;nan
71043;BME280;58696;52.134;5.500;2022-08-19T04:14:22;101345.88;;;14.59;nan
71043;BME280;58696;52.134;5.500;2022-08-19T04:16:50;101344.13;;;14.60;nan
71043;BME280;58696;52.134;5.500;2022-08-19T04:19:18;101335.34;;;14.61;nan
71043;BME280;58696;52.134;5.500;2022-08-19T04:21:46;101345.91;;;14.64;nan
71043;BME280;58696;52.134;5.500;2022-08-19T04:24:16;101345.06;;;14.65;nan
71043;BME280;58696;52.134;5.500;2022-08-19T04:26:43;101342.41;;;14.62;nan
71043;BME280;58696;52.134;5.500;2022-08-19T04:29:16;101348.50;;;14.58;nan
71043;BME280;58696;52.134;5.500;2022-08-19T04:31:46;101357.25;;;14.53;nan
71043;BME280;58696;52.134;5.500;2022-08-19T04:34:15;101345.78;;;14.48;nan
71043;BME280;58696;52.134;5.500;2022-08-19T04:36:45;101353.66;;;14.47;nan
71043;BME280;58696;52.134;5.500;2022-08-19T04:39:16;101343.94;;;14.41;nan
71043;BME280;58696;52.134;5.500;2022-08-19T04:41:44;101344.84;;;14.40;nan
71043;BME280;58696;52.134;5.500;2022-08-19T04:44:34;101343.94;;;14.38;nan
71043;BME280;58696;52.134;5.500;2022-08-19T04:47:02;101338.66;;;14.35;nan
71043;BME280;58696;52.134;5.500;2022-08-19T04:49:36;101343.00;;;14.33;nan
71043;BME280;58696;52.134;5.500;2022-08-19T04:52:03;101347.44;;;14.37;nan
71043;BME280;58696;52.134;5.500;2022-08-19T04:54:30;101347.47;;;14.40;nan
71043;BME280;58696;52.134;5.500;2022-08-19T04:57:05;101350.09;;;14.41;nan
71043;BME280;58696;52.134;5.500;2022-08-19T04:59:34;101349.22;;;14.41;nan
71043;BME280;58696;52.134;5.500;2022-08-19T05:02:06;101352.72;;;14.40;nan
71043;BME280;58696;52.134;5.500;2022-08-19T05:04:32;101350.13;;;14.43;nan
71043;BME280;58696;52.134;5.500;2022-08-19T05:07:00;101353.63;;;14.42;nan
71043;BME280;58696;52.134;5.500;2022-08-19T05:09:30;101358.03;;;14.45;nan
71043;BME280;58696;52.134;5.500;2022-08-19T05:12:17;101360.72;;;14.52;nan
71043;BME280;58696;52.134;5.500;2022-08-19T05:14:45;101361.63;;;14.54;nan
71043;BME280;58696;52.134;5.500;2022-08-19T05:17:15;101359.03;;;14.58;nan
71043;BME280;58696;52.134;5.500;2022-08-19T05:19:54;101364.31;;;14.64;nan
71043;BME280;58696;52.134;5.500;2022-08-19T05:22:39;101363.47;;;14.68;nan
71043;BME280;58696;52.134;5.500;2022-08-19T05:25:10;101360.00;;;14.72;nan
71043;BME280;58696;52.134;5.500;2022-08-19T05:27:40;101366.16;;;14.73;nan
71043;BME280;58696;52.134;5.500;2022-08-19T05:30:08;101369.66;;;14.70;nan
71043;BME280;58696;52.134;5.500;2022-08-19T05:32:35;101380.13;;;14.67;nan
71043;BME280;58696;52.134;5.500;2022-08-19T05:35:03;101373.94;;;14.60;nan
71043;BME280;58696;52.134;5.500;2022-08-19T05:37:30;101380.94;;;14.60;nan
71043;BME280;58696;52.134;5.500;2022-08-19T05:39:57;101368.72;;;14.63;nan
71043;BME280;58696;52.134;5.500;2022-08-19T05:42:24;101370.50;;;14.66;nan
71043;BME280;58696;52.134;5.500;2022-08-19T05:44:53;101380.19;;;14.72;nan
71043;BME280;58696;52.134;5.500;2022-08-19T05:47:20;101383.78;;;14.78;nan
71043;BME280;58696;52.134;5.500;2022-08-19T05:49:48;101388.22;;;14.86;nan
71043;BME280;58696;52.134;5.500;2022-08-19T05:52:16;101379.50;;;14.96;nan
71043;BME280;58696;52.134;5.500;2022-08-19T05:54:45;101374.31;;;15.05;nan
71043;BME280;58696;52.134;5.500;2022-08-19T05:57:17;101370.03;;;15.18;nan
71043;BME280;58696;52.134;5.500;2022-08-19T05:59:44;101374.44;;;15.27;nan
71043;BME280;58696;52.134;5.500;2022-08-19T06:02:14;101360.44;;;15.35;nan
71043;BME280;58696;52.134;5.500;2022-08-19T06:04:40;101372.75;;;15.40;nan
71043;BME280;58696;52.134;5.500;2022-08-19T06:07:09;101374.56;;;15.48;nan
71043;BME280;58696;52.134;5.500;2022-08-19T06:09:37;101378.09;;;15.54;nan
71043;BME280;58696;52.134;5.500;2022-08-19T06:12:05;101379.00;;;15.63;nan
71043;BME280;58696;52.134;5.500;2022-08-19T06:14:34;101371.16;;;15.74;nan
71043;BME280;58696;52.134;5.500;2022-08-19T06:17:05;101377.34;;;15.88;nan
71043;BME280;58696;52.134;5.500;2022-08-19T06:19:32;101387.97;;;16.04;nan
71043;BME280;58696;52.134;5.500;2022-08-19T06:22:00;101382.75;;;16.16;nan
71043;BME280;58696;52.134;5.500;2022-08-19T06:24:29;101385.41;;;16.30;nan
71043;BME280;58696;52.134;5.500;2022-08-19T06:26:57;101384.53;;;16.42;nan
71043;BME280;58696;52.134;5.500;2022-08-19T06:29:27;101369.59;;;16.55;nan
71043;BME280;58696;52.134;5.500;2022-08-19T06:31:57;101371.34;;;16.69;nan
71043;BME280;58696;52.134;5.500;2022-08-19T06:34:25;101369.56;;;16.82;nan
71043;BME280;58696;52.134;5.500;2022-08-19T06:36:58;101373.06;;;16.92;nan
71043;BME280;58696;52.134;5.500;2022-08-19T06:39:30;101371.31;;;17.02;nan
71043;BME280;58696;52.134;5.500;2022-08-19T06:42:00;101376.63;;;17.16;nan
71043;BME280;58696;52.134;5.500;2022-08-19T06:44:28;101380.09;;;17.27;nan
71043;BME280;58696;52.134;5.500;2022-08-19T06:46:56;101378.28;;;17.39;nan
71043;BME280;58696;52.134;5.500;2022-08-19T06:49:25;101389.72;;;17.50;nan
71043;BME280;58696;52.134;5.500;2022-08-19T06:51:55;101378.22;;;17.60;nan
71043;BME280;58696;52.134;5.500;2022-08-19T06:54:24;101379.97;;;17.71;nan
71043;BME280;58696;52.134;5.500;2022-08-19T06:57:00;101383.44;;;17.82;nan
71043;BME280;58696;52.134;5.500;2022-08-19T06:59:31;101379.81;;;17.96;nan
71043;BME280;58696;52.134;5.500;2022-08-19T07:02:01;101386.84;;;18.05;nan
71043;BME280;58696;52.134;5.500;2022-08-19T07:04:33;101389.47;;;18.11;nan
71043;BME280;58696;52.134;5.500;2022-08-19T07:07:09;101382.41;;;18.11;nan
71043;BME280;58696;52.134;5.500;2022-08-19T07:09:45;101387.69;;;18.15;nan
71043;BME280;58696;52.134;5.500;2022-08-19T07:12:22;101384.16;;;18.17;nan
71043;BME280;58696;52.134;5.500;2022-08-19T07:14:49;101397.38;;;18.19;nan
71043;BME280;58696;52.134;5.500;2022-08-19T07:17:15;101391.19;;;18.17;nan
71043;BME280;58696;52.134;5.500;2022-08-19T07:19:42;101391.19;;;18.17;nan
71043;BME280;58696;52.134;5.500;2022-08-19T07:22:09;101400.94;;;18.15;nan
71043;BME280;58696;52.134;5.500;2022-08-19T07:24:38;101396.53;;;18.12;nan
71043;BME280;58696;52.134;5.500;2022-08-19T07:27:05;101399.19;;;18.09;nan
71043;BME280;58696;52.134;5.500;2022-08-19T07:29:37;101394.72;;;18.16;nan
71043;BME280;58696;52.134;5.500;2022-08-19T07:32:04;101404.41;;;18.20;nan
71043;BME280;58696;52.134;5.500;2022-08-19T07:34:31;101409.69;;;18.21;nan
71043;BME280;58696;52.134;5.500;2022-08-19T07:37:05;101394.63;;;18.31;nan
71043;BME280;58696;52.134;5.500;2022-08-19T07:39:34;101397.19;;;18.42;nan
71043;BME280;58696;52.134;5.500;2022-08-19T07:42:08;101389.25;;;18.42;nan
71043;BME280;58696;52.134;5.500;2022-08-19T07:44:37;101395.44;;;18.43;nan
71043;BME280;58696;52.134;5.500;2022-08-19T07:47:08;101399.00;;;18.38;nan
71043;BME280;58696;52.134;5.500;2022-08-19T07:49:56;101407.75;;;18.51;nan
71043;BME280;58696;52.134;5.500;2022-08-19T07:52:22;101406.81;;;18.56;nan
71043;BME280;58696;52.134;5.500;2022-08-19T07:54:50;101409.47;;;18.57;nan
71043;BME280;58696;52.134;5.500;2022-08-19T07:57:17;101415.63;;;18.55;nan
71043;BME280;58696;52.134;5.500;2022-08-19T07:59:47;101419.16;;;18.57;nan
71043;BME280;58696;52.134;5.500;2022-08-19T08:02:16;101420.00;;;18.60;nan
71043;BME280;58696;52.134;5.500;2022-08-19T08:04:43;101423.53;;;18.59;nan
71043;BME280;58696;52.134;5.500;2022-08-19T08:07:31;101422.63;;;18.63;nan
71043;BME280;58696;52.134;5.500;2022-08-19T08:10:16;101428.81;;;18.64;nan
71043;BME280;58696;52.134;5.500;2022-08-19T08:12:46;101427.00;;;18.68;nan
71043;BME280;58696;52.134;5.500;2022-08-19T08:15:33;101438.28;;;18.93;nan
71043;BME280;58696;52.134;5.500;2022-08-19T08:18:04;101433.44;;;19.44;nan
71043;BME280;58696;52.134;5.500;2022-08-19T08:20:33;101429.16;;;20.07;nan
71043;BME280;58696;52.134;5.500;2022-08-19T08:22:59;101437.09;;;20.68;nan
71043;BME280;58696;52.134;5.500;2022-08-19T08:25:45;101440.75;;;20.61;nan
71043;BME280;58696;52.134;5.500;2022-08-19T08:28:12;101451.06;;;20.80;nan
71043;BME280;58696;52.134;5.500;2022-08-19T08:30:46;101451.50;;;21.08;nan
71043;BME280;58696;52.134;5.500;2022-08-19T08:33:23;101462.81;;;21.20;nan
71043;BME280;58696;52.134;5.500;2022-08-19T08:36:09;101462.13;;;21.08;nan
71043;BME280;58696;52.134;5.500;2022-08-19T08:38:41;101460.69;;;20.90;nan
71043;BME280;58696;52.134;5.500;2022-08-19T08:43:54;101462.13;;;20.52;nan
71043;BME280;58696;52.134;5.500;2022-08-19T08:46:35;101466.16;;;20.16;nan
71043;BME280;58696;52.134;5.500;2022-08-19T08:51:51;101470.88;;;19.89;nan
71043;BME280;58696;52.134;5.500;2022-08-19T08:54:30;101471.81;;;19.87;nan
71043;BME280;58696;52.134;5.500;2022-08-19T08:57:00;101462.94;;;19.89;nan
71043;BME280;58696;52.134;5.500;2022-08-19T08:59:35;101469.88;;;20.03;nan
71043;BME280;58696;52.134;5.500;2022-08-19T09:02:03;101464.38;;;20.18;nan
71043;BME280;58696;52.134;5.500;2022-08-19T09:04:30;101465.94;;;20.32;nan
71043;BME280;58696;52.134;5.500;2022-08-19T09:09:47;101468.47;;;20.43;nan
71043;BME280;58696;52.134;5.500;2022-08-19T09:15:00;101460.97;;;20.70;nan
71043;BME280;58696;52.134;5.500;2022-08-19T09:17:30;101451.69;;;20.98;nan
71043;BME280;58696;52.134;5.500;2022-08-19T09:20:06;101460.66;;;21.42;nan
71043;BME280;58696;52.134;5.500;2022-08-19T09:22:36;101448.22;;;21.90;nan
71043;BME280;58696;52.134;5.500;2022-08-19T09:25:03;101458.63;;;22.42;nan
71043;BME280;58696;52.134;5.500;2022-08-19T09:27:31;101472.13;;;22.74;nan
71043;BME280;58696;52.134;5.500;2022-08-19T09:30:27;101451.25;;;22.92;nan
71043;BME280;58696;52.134;5.500;2022-08-19T09:32:55;101453.81;;;22.96;nan
71043;BME280;58696;52.134;5.500;2022-08-19T09:35:23;101456.16;;;23.09;nan
71043;BME280;58696;52.134;5.500;2022-08-19T09:37:51;101458.94;;;23.03;nan
71043;BME280;58696;52.134;5.500;2022-08-19T09:40:23;101461.84;;;22.95;nan
71043;BME280;58696;52.134;5.500;2022-08-19T09:42:50;101466.44;;;22.88;nan
71043;BME280;58696;52.134;5.500;2022-08-19T09:45:21;101461.78;;;22.60;nan
71043;BME280;58696;52.134;5.500;2022-08-19T09:47:51;101464.53;;;22.55;nan
71043;BME280;58696;52.134;5.500;2022-08-19T09:50:21;101464.53;;;22.55;nan
71043;BME280;58696;52.134;5.500;2022-08-19T09:52:48;101462.63;;;22.62;nan
71043;BME280;58696;52.134;5.500;2022-08-19T09:55:20;101458.31;;;22.93;nan
71043;BME280;58696;52.134;5.500;2022-08-19T09:57:47;101455.06;;;23.16;nan
71043;BME280;58696;52.134;5.500;2022-08-19T10:00:17;101450.28;;;23.29;nan
71043;BME280;58696;52.134;5.500;2022-08-19T10:02:47;101459.63;;;23.11;nan
71043;BME280;58696;52.134;5.500;2022-08-19T10:05:14;101458.28;;;23.29;nan
71043;BME280;58696;52.134;5.500;2022-08-19T10:08:00;101458.91;;;23.72;nan
71043;BME280;58696;52.134;5.500;2022-08-19T10:10:29;101461.69;;;23.99;nan
71043;BME280;58696;52.134;5.500;2022-08-19T10:13:01;101462.56;;;24.30;nan
71043;BME280;58696;52.134;5.500;2022-08-19T10:15:28;101462.41;;;24.35;nan
71043;BME280;58696;52.134;5.500;2022-08-19T10:17:57;101458.56;;;24.15;nan
71043;BME280;58696;52.134;5.500;2022-08-19T10:20:25;101458.72;;;24.39;nan
71043;BME280;58696;52.134;5.500;2022-08-19T10:22:52;101461.47;;;24.64;nan
71043;BME280;58696;52.134;5.500;2022-08-19T10:25:19;101447.63;;;24.51;nan
71043;BME280;58696;52.134;5.500;2022-08-19T10:27:48;101457.03;;;24.36;nan
71043;BME280;58696;52.134;5.500;2022-08-19T10:30:17;101456.84;;;24.14;nan
71043;BME280;58696;52.134;5.500;2022-08-19T10:32:45;101456.41;;;23.96;nan
71043;BME280;58696;52.134;5.500;2022-08-19T10:35:15;101451.84;;;24.01;nan
71043;BME280;58696;52.134;5.500;2022-08-19T10:37:49;101447.38;;;24.32;nan
71043;BME280;58696;52.134;5.500;2022-08-19T10:40:23;101453.88;;;24.52;nan
71043;BME280;58696;52.134;5.500;2022-08-19T10:42:50;101449.47;;;24.51;nan
71043;BME280;58696;52.134;5.500;2022-08-19T10:45:17;101456.28;;;24.60;nan
71043;BME280;58696;52.134;5.500;2022-08-19T10:47:46;101448.34;;;24.85;nan
71043;BME280;58696;52.134;5.500;2022-08-19T10:50:13;101454.38;;;24.92;nan
71043;BME280;58696;52.134;5.500;2022-08-19T10:53:04;101448.78;;;24.71;nan
71043;BME280;58696;52.134;5.500;2022-08-19T10:55:35;101444.88;;;24.82;nan
71043;BME280;58696;52.134;5.500;2022-08-19T10:58:21;101439.25;;;24.91;nan
71043;BME280;58696;52.134;5.500;2022-08-19T11:00:54;101444.56;;;25.18;nan
71043;BME280;58696;52.134;5.500;2022-08-19T11:03:25;101435.63;;;25.44;nan
71043;BME280;58696;52.134;5.500;2022-08-19T11:06:03;101432.47;;;25.57;nan
71043;BME280;58696;52.134;5.500;2022-08-19T11:08:31;101425.94;;;25.66;nan
71043;BME280;58696;52.134;5.500;2022-08-19T11:11:02;101432.59;;;25.54;nan
71043;BME280;58696;52.134;5.500;2022-08-19T11:13:32;101431.94;;;25.73;nan
71043;BME280;58696;52.134;5.500;2022-08-19T11:16:12;101437.66;;;26.10;nan
71043;BME280;58696;52.134;5.500;2022-08-19T11:18:42;101429.56;;;26.35;nan
71043;BME280;58696;52.134;5.500;2022-08-19T11:21:15;101427.59;;;26.39;nan
71043;BME280;58696;52.134;5.500;2022-08-19T11:23:43;101419.94;;;26.29;nan
71043;BME280;58696;52.134;5.500;2022-08-19T11:26:13;101423.41;;;26.54;nan
71043;BME280;58696;52.134;5.500;2022-08-19T11:28:40;101418.09;;;26.75;nan
71043;BME280;58696;52.134;5.500;2022-08-19T11:31:11;101426.28;;;26.92;nan
71043;BME280;58696;52.134;5.500;2022-08-19T11:33:38;101424.56;;;27.12;nan
71043;BME280;58696;52.134;5.500;2022-08-19T11:36:05;101422.16;;;27.27;nan
71043;BME280;58696;52.134;5.500;2022-08-19T11:38:35;101422.53;;;27.38;nan
71043;BME280;58696;52.134;5.500;2022-08-19T11:41:06;101415.75;;;27.29;nan
71043;BME280;58696;52.134;5.500;2022-08-19T11:43:36;101417.53;;;27.30;nan
71043;BME280;58696;52.134;5.500;2022-08-19T11:46:07;101413.41;;;26.80;nan
71043;BME280;58696;52.134;5.500;2022-08-19T11:48:36;101406.94;;;26.18;nan
71043;BME280;58696;52.134;5.500;2022-08-19T11:51:04;101403.97;;;26.04;nan
71043;BME280;58696;52.134;5.500;2022-08-19T11:53:32;101415.50;;;25.82;nan
71043;BME280;58696;52.134;5.500;2022-08-19T11:56:04;101417.03;;;26.12;nan
71043;BME280;58696;52.134;5.500;2022-08-19T11:58:32;101410.88;;;26.54;nan
71043;BME280;58696;52.134;5.500;2022-08-19T12:00:59;101416.88;;;27.04;nan
71043;BME280;58696;52.134;5.500;2022-08-19T12:03:26;101406.84;;;27.08;nan
71043;BME280;58696;52.134;5.500;2022-08-19T12:05:54;101414.75;;;26.90;nan
71043;BME280;58696;52.134;5.500;2022-08-19T12:08:23;101418.88;;;26.56;nan
71043;BME280;58696;52.134;5.500;2022-08-19T12:10:50;101427.41;;;26.21;nan
71043;BME280;58696;52.134;5.500;2022-08-19T12:13:17;101421.16;;;25.98;nan
71043;BME280;58696;52.134;5.500;2022-08-19T12:15:46;101423.34;;;26.11;nan
71043;BME280;58696;52.134;5.500;2022-08-19T12:18:14;101422.38;;;26.12;nan
71043;BME280;58696;52.134;5.500;2022-08-19T12:20:42;101420.25;;;25.98;nan
71043;BME280;58696;52.134;5.500;2022-08-19T12:23:10;101420.13;;;25.78;nan
71043;BME280;58696;52.134;5.500;2022-08-19T12:25:42;101422.44;;;25.64;nan
71043;BME280;58696;52.134;5.500;2022-08-19T12:28:24;101420.81;;;25.34;nan
71043;BME280;58696;52.134;5.500;2022-08-19T12:30:51;101411.66;;;25.16;nan
71043;BME280;58696;52.134;5.500;2022-08-19T12:33:20;101419.50;;;24.95;nan
71043;BME280;58696;52.134;5.500;2022-08-19T12:35:51;101423.44;;;24.83;nan
71043;BME280;58696;52.134;5.500;2022-08-19T12:38:18;101420.63;;;24.61;nan
71043;BME280;58696;52.134;5.500;2022-08-19T12:40:46;101415.88;;;24.42;nan
71043;BME280;58696;52.134;5.500;2022-08-19T12:43:14;101416.44;;;24.25;nan
71043;BME280;58696;52.134;5.500;2022-08-19T12:45:44;101414.09;;;24.14;nan
71043;BME280;58696;52.134;5.500;2022-08-19T12:48:12;101420.75;;;23.99;nan
71043;BME280;58696;52.134;5.500;2022-08-19T12:50:59;101418.50;;;23.85;nan
71043;BME280;58696;52.134;5.500;2022-08-19T12:53:28;101408.31;;;23.68;nan
71043;BME280;58696;52.134;5.500;2022-08-19T12:55:58;101410.50;;;23.55;nan
71043;BME280;58696;52.134;5.500;2022-08-19T12:58:26;101414.41;;;23.41;nan
71043;BME280;58696;52.134;5.500;2022-08-19T13:00:53;101411.19;;;23.28;nan
71043;BME280;58696;52.134;5.500;2022-08-19T13:03:20;101410.47;;;23.21;nan
71043;BME280;58696;52.134;5.500;2022-08-19T13:05:51;101409.53;;;23.24;nan
71043;BME280;58696;52.134;5.500;2022-08-19T13:08:18;101405.16;;;23.21;nan
71043;BME280;58696;52.134;5.500;2022-08-19T13:10:48;101405.41;;;23.12;nan
71043;BME280;58696;52.134;5.500;2022-08-19T13:13:14;101410.75;;;23.12;nan
71043;BME280;58696;52.134;5.500;2022-08-19T13:15:41;101405.44;;;23.10;nan
71043;BME280;58696;52.134;5.500;2022-08-19T13:18:09;101404.69;;;23.05;nan
71043;BME280;58696;52.134;5.500;2022-08-19T13:20:39;101398.56;;;23.02;nan
71043;BME280;58696;52.134;5.500;2022-08-19T13:23:26;101412.16;;;22.92;nan
71043;BME280;58696;52.134;5.500;2022-08-19T13:26:00;101421.19;;;22.86;nan
71043;BME280;58696;52.134;5.500;2022-08-19T13:28:28;101416.16;;;22.74;nan
71043;BME280;58696;52.134;5.500;2022-08-19T13:31:19;101417.22;;;22.67;nan
71043;BME280;58696;52.134;5.500;2022-08-19T13:34:05;101412.00;;;22.62;nan
71043;BME280;58696;52.134;5.500;2022-08-19T13:36:35;101415.88;;;22.48;nan